sensor_id;sensor_type;location;lat;lon;timestamp;pressure;altitude;pressure_sealevel;temperature;humidity
9281;BME280;4679;47.966;7.958;2023-07-16T06:36:31;97348.34;;;18.46;79.79
9281;BME280;4679;47.966;7.958;2023-07-16T06:38:32;97357.34;;;18.55;79.20
9281;BME280;4679;47.966;7.958;2023-07-16T06:40:34;97365.09;;;18.61;78.99
9281;BME280;4679;47.966;7.958;2023-07-16T06:42:36;97367.66;;;18.72;78.78
9281;BME280;4679;47.966;7.958;2023-07-16T06:44:37;97371.66;;;18.74;78.70
9281;BME280;4679;47.966;7.958;2023-07-16T06:46:39;97363.31;;;18.76;78.39
9281;BME280;4679;47.966;7.958;2023-07-16T06:48:41;97365.47;;;18.74;78.24
9281;BME280;4679;47.966;7.958;2023-07-16T06:50:42;97364.91;;;18.77;78.26
9281;BME280;4679;47.966;7.958;2023-07-16T06:52:45;97366.13;;;18.84;78.00
9281;BME280;4679;47.966;7.958;2023-07-16T06:54:47;97359.09;;;18.88;77.71
9281;BME280;4679;47.966;7.958;2023-07-16T06:56:49;97359.66;;;18.85;77.73
9281;BME280;4679;47.966;7.958;2023-07-16T06:58:50;97353.06;;;18.78;77.55
9281;BME280;4679;47.966;7.958;2023-07-16T07:00:52;97343.75;;;18.70;77.61
9281;BME280;4679;47.966;7.958;2023-07-16T07:02:54;97343.00;;;18.65;77.93
9281;BME280;4679;47.966;7.958;2023-07-16T07:04:55;97351.81;;;18.70;77.53
9281;BME280;4679;47.966;7.958;2023-07-16T07:06:57;97349.47;;;18.82;77.06
9281;BME280;4679;47.966;7.958;2023-07-16T07:09:00;97351.88;;;18.84;77.13
9281;BME280;4679;47.966;7.958;2023-07-16T07:11:02;97354.00;;;18.87;76.82
9281;BME280;4679;47.966;7.958;2023-07-16T07:13:03;97367.44;;;18.87;76.93
9281;BME280;4679;47.966;7.958;2023-07-16T07:15:06;97374.66;;;18.91;76.33
9281;BME280;4679;47.966;7.958;2023-07-16T07:17:08;97372.97;;;18.95;75.81
9281;BME280;4679;47.966;7.958;2023-07-16T07:19:10;97371.56;;;18.98;75.75
9281;BME280;4679;47.966;7.958;2023-07-16T07:21:11;97366.34;;;19.07;75.57
9281;BME280;4679;47.966;7.958;2023-07-16T07:23:13;97368.38;;;19.15;75.13
9281;BME280;4679;47.966;7.958;2023-07-16T07:25:15;97362.63;;;19.21;74.95
9281;BME280;4679;47.966;7.958;2023-07-16T07:27:17;97354.00;;;19.24;74.64
9281;BME280;4679;47.966;7.958;2023-07-16T07:29:19;97345.53;;;19.12;74.96
9281;BME280;4679;47.966;7.958;2023-07-16T07:31:20;97340.44;;;19.11;74.69
9281;BME280;4679;47.966;7.958;2023-07-16T07:33:22;97338.09;;;19.09;74.23
9281;BME280;4679;47.966;7.958;2023-07-16T07:35:24;97345.41;;;19.04;74.27
9281;BME280;4679;47.966;7.958;2023-07-16T07:37:25;97357.78;;;19.05;74.30
9281;BME280;4679;47.966;7.958;2023-07-16T07:39:27;97345.13;;;19.05;73.97
9281;BME280;4679;47.966;7.958;2023-07-16T07:41:30;97344.38;;;19.18;73.77
9281;BME280;4679;47.966;7.958;2023-07-16T07:43:31;97350.53;;;19.38;72.98
9281;BME280;4679;47.966;7.958;2023-07-16T07:45:33;97353.00;;;19.53;72.58
9281;BME280;4679;47.966;7.958;2023-07-16T07:47:34;97350.13;;;19.63;72.42
9281;BME280;4679;47.966;7.958;2023-07-16T07:49:35;97348.38;;;19.86;71.84
9281;BME280;4679;47.966;7.958;2023-07-16T07:51:37;97346.09;;;20.07;71.39
9281;BME280;4679;47.966;7.958;2023-07-16T07:53:39;97347.69;;;20.08;71.27
9281;BME280;4679;47.966;7.958;2023-07-16T07:55:41;97346.97;;;20.02;71.41
9281;BME280;4679;47.966;7.958;2023-07-16T07:57:44;97349.28;;;19.95;71.44
9281;BME280;4679;47.966;7.958;2023-07-16T07:59:44;97356.50;;;19.99;71.08
9281;BME280;4679;47.966;7.958;2023-07-16T08:01:46;97349.88;;;20.06;70.96
9281;BME280;4679;47.966;7.958;2023-07-16T08:03:46;97365.66;;;19.98;70.79
9281;BME280;4679;47.966;7.958;2023-07-16T08:05:48;97361.47;;;20.06;70.48
9281;BME280;4679;47.966;7.958;2023-07-16T08:07:50;97354.69;;;20.22;70.06
9281;BME280;4679;47.966;7.958;2023-07-16T08:09:52;97367.16;;;20.32;69.87
9281;BME280;4679;47.966;7.958;2023-07-16T08:11:54;97365.38;;;20.27;69.68
9281;BME280;4679;47.966;7.958;2023-07-16T08:13:57;97361.59;;;20.28;69.43
9281;BME280;4679;47.966;7.958;2023-07-16T08:15:59;97363.06;;;20.34;69.42
9281;BME280;4679;47.966;7.958;2023-07-16T08:18:00;97359.50;;;20.39;68.91
9281;BME280;4679;47.966;7.958;2023-07-16T08:20:02;97357.91;;;20.38;68.92
9281;BME280;4679;47.966;7.958;2023-07-16T08:22:04;97358.09;;;20.28;68.88
9281;BME280;4679;47.966;7.958;2023-07-16T08:24:06;97357.50;;;20.31;68.67
9281;BME280;4679;47.966;7.958;2023-07-16T08:26:08;97363.28;;;20.38;68.92
9281;BME280;4679;47.966;7.958;2023-07-16T08:28:10;97335.31;;;20.48;68.35
9281;BME280;4679;47.966;7.958;2023-07-16T08:30:13;97353.50;;;20.42;68.37
9281;BME280;4679;47.966;7.958;2023-07-16T08:32:15;97353.50;;;20.28;68.41
9281;BME280;4679;47.966;7.958;2023-07-16T08:34:17;97353.97;;;20.17;68.52
9281;BME280;4679;47.966;7.958;2023-07-16T08:36:18;97356.38;;;20.18;68.44
9281;BME280;4679;47.966;7.958;2023-07-16T08:38:20;97362.78;;;20.22;68.34
9281;BME280;4679;47.966;7.958;2023-07-16T08:40:22;97367.88;;;20.24;68.21
9281;BME280;4679;47.966;7.958;2023-07-16T08:42:24;97366.38;;;20.31;67.69
9281;BME280;4679;47.966;7.958;2023-07-16T08:44:26;97366.28;;;20.36;67.46
9281;BME280;4679;47.966;7.958;2023-07-16T08:46:29;97373.06;;;20.48;66.95
9281;BME280;4679;47.966;7.958;2023-07-16T08:48:31;97362.38;;;20.70;66.65
9281;BME280;4679;47.966;7.958;2023-07-16T08:50:33;97362.34;;;20.84;65.97
9281;BME280;4679;47.966;7.958;2023-07-16T08:52:37;97359.06;;;20.73;66.08
9281;BME280;4679;47.966;7.958;2023-07-16T08:54:39;97363.97;;;20.71;65.96
9281;BME280;4679;47.966;7.958;2023-07-16T08:56:41;97363.09;;;20.62;65.98
9281;BME280;4679;47.966;7.958;2023-07-16T08:58:43;97362.28;;;20.61;65.93
9281;BME280;4679;47.966;7.958;2023-07-16T09:00:45;97360.31;;;20.89;65.34
9281;BME280;4679;47.966;7.958;2023-07-16T09:02:48;97361.44;;;21.11;64.87
9281;BME280;4679;47.966;7.958;2023-07-16T09:04:50;97364.13;;;21.24;64.12
9281;BME280;4679;47.966;7.958;2023-07-16T09:06:52;97369.97;;;21.40;63.82
9281;BME280;4679;47.966;7.958;2023-07-16T09:08:54;97369.44;;;21.52;63.28
9281;BME280;4679;47.966;7.958;2023-07-16T09:10:57;97366.03;;;21.68;63.25
9281;BME280;4679;47.966;7.958;2023-07-16T09:12:58;97358.56;;;21.96;62.70
9281;BME280;4679;47.966;7.958;2023-07-16T09:14:59;97366.53;;;22.01;62.27
9281;BME280;4679;47.966;7.958;2023-07-16T09:17:02;97354.19;;;22.18;61.82
9281;BME280;4679;47.966;7.958;2023-07-16T09:19:09;97358.38;;;22.32;61.48
9281;BME280;4679;47.966;7.958;2023-07-16T09:21:13;97356.66;;;22.36;61.24
9281;BME280;4679;47.966;7.958;2023-07-16T09:23:17;97370.00;;;22.33;61.63
9281;BME280;4679;47.966;7.958;2023-07-16T09:25:18;97367.16;;;22.29;61.59
9281;BME280;4679;47.966;7.958;2023-07-16T09:27:19;97364.97;;;22.49;61.16
9281;BME280;4679;47.966;7.958;2023-07-16T09:29:22;97362.78;;;22.59;60.85
9281;BME280;4679;47.966;7.958;2023-07-16T09:31:23;97361.19;;;22.67;60.60
9281;BME280;4679;47.966;7.958;2023-07-16T09:33:26;97358.00;;;22.65;60.32
9281;BME280;4679;47.966;7.958;2023-07-16T09:35:29;97351.47;;;22.66;60.42
9281;BME280;4679;47.966;7.958;2023-07-16T09:37:31;97353.66;;;22.38;60.90
9281;BME280;4679;47.966;7.958;2023-07-16T09:39:32;97360.19;;;22.06;61.31
9281;BME280;4679;47.966;7.958;2023-07-16T09:41:35;97367.41;;;21.88;61.34
9281;BME280;4679;47.966;7.958;2023-07-16T09:43:40;97367.78;;;21.73;61.46
9281;BME280;4679;47.966;7.958;2023-07-16T09:45:42;97373.88;;;21.79;61.52
9281;BME280;4679;47.966;7.958;2023-07-16T09:47:44;97365.00;;;21.87;60.74
9281;BME280;4679;47.966;7.958;2023-07-16T09:49:46;97368.56;;;21.96;60.57
9281;BME280;4679;47.966;7.958;2023-07-16T09:51:52;97363.28;;;22.13;59.92
9281;BME280;4679;47.966;7.958;2023-07-16T09:53:57;97366.38;;;22.46;59.23
9281;BME280;4679;47.966;7.958;2023-07-16T09:56:04;97372.81;;;22.67;58.77
9281;BME280;4679;47.966;7.958;2023-07-16T09:58:09;97376.94;;;22.56;59.20
9281;BME280;4679;47.966;7.958;2023-07-16T10:00:13;97373.94;;;22.75;58.52
9281;BME280;4679;47.966;7.958;2023-07-16T10:02:16;97370.66;;;23.04;58.17
9281;BME280;4679;47.966;7.958;2023-07-16T10:04:18;97358.72;;;22.96;58.13
9281;BME280;4679;47.966;7.958;2023-07-16T10:06:19;97357.88;;;22.78;58.48
9281;BME280;4679;47.966;7.958;2023-07-16T10:08:22;97359.44;;;22.71;58.77
9281;BME280;4679;47.966;7.958;2023-07-16T10:10:29;97366.28;;;22.60;58.85
9281;BME280;4679;47.966;7.958;2023-07-16T10:12:41;97360.53;;;22.53;59.25
9281;BME280;4679;47.966;7.958;2023-07-16T10:14:43;97360.47;;;22.35;59.22
9281;BME280;4679;47.966;7.958;2023-07-16T10:16:47;97365.25;;;22.30;59.16
9281;BME280;4679;47.966;7.958;2023-07-16T10:18:50;97362.88;;;22.37;59.23
9281;BME280;4679;47.966;7.958;2023-07-16T10:20:53;97362.69;;;22.33;59.06
9281;BME280;4679;47.966;7.958;2023-07-16T10:22:55;97359.34;;;22.28;59.38
9281;BME280;4679;47.966;7.958;2023-07-16T10:24:58;97360.75;;;22.25;59.34
9281;BME280;4679;47.966;7.958;2023-07-16T10:26:59;97362.38;;;22.35;59.02
9281;BME280;4679;47.966;7.958;2023-07-16T10:29:01;97360.81;;;22.42;59.06
9281;BME280;4679;47.966;7.958;2023-07-16T10:33:11;97360.34;;;22.40;58.86
9281;BME280;4679;47.966;7.958;2023-07-16T10:35:13;97363.03;;;22.40;58.89
9281;BME280;4679;47.966;7.958;2023-07-16T10:37:14;97358.25;;;22.37;58.97
9281;BME280;4679;47.966;7.958;2023-07-16T10:39:17;97355.84;;;22.36;58.96
9281;BME280;4679;47.966;7.958;2023-07-16T10:41:20;97354.13;;;22.49;58.67
9281;BME280;4679;47.966;7.958;2023-07-16T10:43:23;97353.25;;;22.70;58.09
9281;BME280;4679;47.966;7.958;2023-07-16T10:45:25;97359.19;;;22.98;57.70
9281;BME280;4679;47.966;7.958;2023-07-16T10:47:30;97349.78;;;23.13;57.13
9281;BME280;4679;47.966;7.958;2023-07-16T10:49:32;97343.25;;;23.31;57.15
9281;BME280;4679;47.966;7.958;2023-07-16T10:51:32;97349.28;;;23.45;56.87
9281;BME280;4679;47.966;7.958;2023-07-16T10:53:40;97348.34;;;23.59;56.83
9281;BME280;4679;47.966;7.958;2023-07-16T10:55:42;97355.16;;;23.73;56.15
9281;BME280;4679;47.966;7.958;2023-07-16T10:57:46;97358.78;;;23.95;55.89
9281;BME280;4679;47.966;7.958;2023-07-16T10:59:50;97352.25;;;23.96;55.94
9281;BME280;4679;47.966;7.958;2023-07-16T11:01:52;97359.06;;;24.02;55.80
9281;BME280;4679;47.966;7.958;2023-07-16T11:04:00;97350.88;;;24.19;55.57
9281;BME280;4679;47.966;7.958;2023-07-16T11:06:05;97349.78;;;24.11;55.54
9281;BME280;4679;47.966;7.958;2023-07-16T11:08:07;97344.78;;;24.22;55.61
9281;BME280;4679;47.966;7.958;2023-07-16T11:10:09;97346.00;;;24.42;55.43
9281;BME280;4679;47.966;7.958;2023-07-16T11:12:11;97334.16;;;24.46;55.23
9281;BME280;4679;47.966;7.958;2023-07-16T11:14:14;97335.47;;;24.40;55.22
9281;BME280;4679;47.966;7.958;2023-07-16T11:16:16;97328.88;;;24.50;55.02
9281;BME280;4679;47.966;7.958;2023-07-16T11:18:18;97338.53;;;24.60;54.91
9281;BME280;4679;47.966;7.958;2023-07-16T11:20:20;97337.63;;;24.56;54.88
9281;BME280;4679;47.966;7.958;2023-07-16T11:22:25;97332.78;;;24.61;54.98
9281;BME280;4679;47.966;7.958;2023-07-16T11:24:28;97335.84;;;24.80;54.58
9281;BME280;4679;47.966;7.958;2023-07-16T11:26:29;97335.69;;;24.85;54.53
9281;BME280;4679;47.966;7.958;2023-07-16T11:28:37;97332.47;;;24.63;54.83
9281;BME280;4679;47.966;7.958;2023-07-16T11:30:41;97340.56;;;24.71;54.51
9281;BME280;4679;47.966;7.958;2023-07-16T11:32:46;97334.38;;;24.62;54.56
9281;BME280;4679;47.966;7.958;2023-07-16T11:34:52;97333.09;;;24.39;54.66
9281;BME280;4679;47.966;7.958;2023-07-16T11:36:55;97337.56;;;23.97;55.51
9281;BME280;4679;47.966;7.958;2023-07-16T11:38:56;97338.41;;;24.18;55.17
9281;BME280;4679;47.966;7.958;2023-07-16T11:41:00;97338.22;;;24.61;54.33
9281;BME280;4679;47.966;7.958;2023-07-16T11:43:08;97337.78;;;24.80;53.89
9281;BME280;4679;47.966;7.958;2023-07-16T11:45:15;97344.09;;;24.42;54.21
9281;BME280;4679;47.966;7.958;2023-07-16T11:47:18;97344.91;;;23.88;55.46
9281;BME280;4679;47.966;7.958;2023-07-16T11:49:20;97344.31;;;23.82;55.54
9281;BME280;4679;47.966;7.958;2023-07-16T11:51:21;97349.63;;;24.08;54.93
9281;BME280;4679;47.966;7.958;2023-07-16T11:53:22;97340.34;;;24.26;54.72
9281;BME280;4679;47.966;7.958;2023-07-16T11:55:24;97334.38;;;24.41;54.43
9281;BME280;4679;47.966;7.958;2023-07-16T11:57:26;97328.13;;;24.41;54.42
9281;BME280;4679;47.966;7.958;2023-07-16T11:59:28;97328.41;;;24.48;54.22
9281;BME280;4679;47.966;7.958;2023-07-16T12:01:29;97320.56;;;24.76;53.67
9281;BME280;4679;47.966;7.958;2023-07-16T12:03:32;97318.16;;;25.04;53.37
9281;BME280;4679;47.966;7.958;2023-07-16T12:05:34;97316.34;;;25.29;53.13
9281;BME280;4679;47.966;7.958;2023-07-16T12:07:37;97319.34;;;25.48;52.62
9281;BME280;4679;47.966;7.958;2023-07-16T12:09:39;97318.94;;;25.37;52.77
9281;BME280;4679;47.966;7.958;2023-07-16T12:11:40;97321.56;;;25.34;53.16
9281;BME280;4679;47.966;7.958;2023-07-16T12:13:42;97318.53;;;25.14;53.57
9281;BME280;4679;47.966;7.958;2023-07-16T12:15:44;97313.41;;;24.92;53.85
9281;BME280;4679;47.966;7.958;2023-07-16T12:17:45;97311.69;;;24.67;54.49
9281;BME280;4679;47.966;7.958;2023-07-16T12:19:48;97311.16;;;24.52;54.27
9281;BME280;4679;47.966;7.958;2023-07-16T12:21:50;97305.25;;;24.50;54.27
9281;BME280;4679;47.966;7.958;2023-07-16T12:23:52;97304.28;;;24.55;54.02
9281;BME280;4679;47.966;7.958;2023-07-16T12:25:53;97305.97;;;24.60;53.95
9281;BME280;4679;47.966;7.958;2023-07-16T12:29:36;97291.84;;;24.75;53.86
9281;BME280;4679;47.966;7.958;2023-07-16T12:31:37;97288.72;;;24.64;53.68
9281;BME280;4679;47.966;7.958;2023-07-16T12:33:39;97298.22;;;24.49;54.16
9281;BME280;4679;47.966;7.958;2023-07-16T12:35:41;97289.69;;;24.39;54.23
9281;BME280;4679;47.966;7.958;2023-07-16T12:37:43;97282.91;;;24.24;54.38
9281;BME280;4679;47.966;7.958;2023-07-16T12:39:45;97283.59;;;24.12;54.46
9281;BME280;4679;47.966;7.958;2023-07-16T12:41:46;97284.31;;;24.30;53.89
9281;BME280;4679;47.966;7.958;2023-07-16T12:43:47;97281.41;;;24.35;53.93
9281;BME280;4679;47.966;7.958;2023-07-16T12:45:50;97282.66;;;24.38;53.92
9281;BME280;4679;47.966;7.958;2023-07-16T12:47:52;97281.16;;;24.19;54.04
9281;BME280;4679;47.966;7.958;2023-07-16T12:49:53;97287.66;;;23.98;54.45
9281;BME280;4679;47.966;7.958;2023-07-16T12:51:55;97282.69;;;24.00;54.42
9281;BME280;4679;47.966;7.958;2023-07-16T12:53:56;97290.72;;;23.88;54.49
9281;BME280;4679;47.966;7.958;2023-07-16T12:55:58;97284.81;;;23.85;54.44
9281;BME280;4679;47.966;7.958;2023-07-16T12:58:00;97295.13;;;24.01;54.12
9281;BME280;4679;47.966;7.958;2023-07-16T13:00:00;97291.19;;;24.19;53.91
9281;BME280;4679;47.966;7.958;2023-07-16T13:02:07;97285.84;;;24.61;53.03
9281;BME280;4679;47.966;7.958;2023-07-16T13:04:08;97278.66;;;24.85;52.71
9281;BME280;4679;47.966;7.958;2023-07-16T13:06:10;97286.09;;;24.97;52.13
9281;BME280;4679;47.966;7.958;2023-07-16T13:08:12;97286.47;;;25.08;52.35
9281;BME280;4679;47.966;7.958;2023-07-16T13:10:13;97296.38;;;25.24;51.69
9281;BME280;4679;47.966;7.958;2023-07-16T13:12:15;97295.69;;;25.48;51.23
9281;BME280;4679;47.966;7.958;2023-07-16T13:14:16;97281.59;;;25.34;51.17
9281;BME280;4679;47.966;7.958;2023-07-16T13:16:18;97285.84;;;25.56;51.23
9281;BME280;4679;47.966;7.958;2023-07-16T13:18:21;97289.91;;;25.95;50.57
9281;BME280;4679;47.966;7.958;2023-07-16T13:20:23;97292.28;;;25.97;50.28
9281;BME280;4679;47.966;7.958;2023-07-16T13:22:25;97286.13;;;25.75;50.21
9281;BME280;4679;47.966;7.958;2023-07-16T13:24:26;97285.03;;;25.55;50.28
9281;BME280;4679;47.966;7.958;2023-07-16T13:26:28;97285.00;;;25.64;50.14
9281;BME280;4679;47.966;7.958;2023-07-16T13:28:30;97285.31;;;25.63;49.79
9281;BME280;4679;47.966;7.958;2023-07-16T13:30:31;97280.25;;;25.40;50.24
9281;BME280;4679;47.966;7.958;2023-07-16T13:32:32;97276.03;;;25.31;50.25
9281;BME280;4679;47.966;7.958;2023-07-16T13:34:35;97277.88;;;25.39;49.69
9281;BME280;4679;47.966;7.958;2023-07-16T13:36:37;97280.13;;;25.37;49.66
9281;BME280;4679;47.966;7.958;2023-07-16T13:38:38;97278.59;;;25.15;49.71
9281;BME280;4679;47.966;7.958;2023-07-16T13:40:40;97270.81;;;25.26;49.37
9281;BME280;4679;47.966;7.958;2023-07-16T13:42:42;97278.44;;;25.65;49.11
9281;BME280;4679;47.966;7.958;2023-07-16T13:44:43;97278.09;;;25.79;48.95
9281;BME280;4679;47.966;7.958;2023-07-16T13:46:45;97276.84;;;25.88;48.52
9281;BME280;4679;47.966;7.958;2023-07-16T13:48:47;97269.75;;;25.96;48.23
9281;BME280;4679;47.966;7.958;2023-07-16T13:50:50;97283.88;;;25.77;48.70
9281;BME280;4679;47.966;7.958;2023-07-16T13:52:51;97273.66;;;25.74;48.23
9281;BME280;4679;47.966;7.958;2023-07-16T13:54:53;97279.66;;;25.68;48.84
9281;BME280;4679;47.966;7.958;2023-07-16T13:56:55;97277.31;;;25.90;48.55
9281;BME280;4679;47.966;7.958;2023-07-16T13:58:57;97271.88;;;26.15;47.57
9281;BME280;4679;47.966;7.958;2023-07-16T14:00:58;97272.34;;;26.41;47.74
9281;BME280;4679;47.966;7.958;2023-07-16T14:03:00;97265.25;;;26.65;47.21
9281;BME280;4679;47.966;7.958;2023-07-16T14:05:02;97267.56;;;26.26;47.36
9281;BME280;4679;47.966;7.958;2023-07-16T14:07:05;97255.22;;;26.28;47.31
9281;BME280;4679;47.966;7.958;2023-07-16T14:09:06;97257.78;;;26.61;47.35
9281;BME280;4679;47.966;7.958;2023-07-16T14:11:08;97260.56;;;26.77;46.59
9281;BME280;4679;47.966;7.958;2023-07-16T14:13:09;97255.22;;;26.81;47.07
9281;BME280;4679;47.966;7.958;2023-07-16T14:15:13;97257.50;;;26.79;46.92
9281;BME280;4679;47.966;7.958;2023-07-16T14:17:14;97259.88;;;26.80;47.06
9281;BME280;4679;47.966;7.958;2023-07-16T14:19:15;97258.09;;;26.72;47.15
9281;BME280;4679;47.966;7.958;2023-07-16T14:21:16;97248.19;;;26.80;46.40
9281;BME280;4679;47.966;7.958;2023-07-16T14:23:19;97251.47;;;26.85;46.30
9281;BME280;4679;47.966;7.958;2023-07-16T14:25:21;97247.59;;;26.99;46.66
9281;BME280;4679;47.966;7.958;2023-07-16T14:27:23;97240.59;;;27.13;46.40
9281;BME280;4679;47.966;7.958;2023-07-16T14:29:25;97242.66;;;27.32;46.03
9281;BME280;4679;47.966;7.958;2023-07-16T14:31:27;97243.25;;;27.25;45.52
9281;BME280;4679;47.966;7.958;2023-07-16T14:33:29;97248.31;;;26.83;46.50
9281;BME280;4679;47.966;7.958;2023-07-16T14:35:33;97240.19;;;26.59;46.83
9281;BME280;4679;47.966;7.958;2023-07-16T14:37:35;97239.25;;;26.39;46.12
9281;BME280;4679;47.966;7.958;2023-07-16T14:39:38;97233.69;;;26.11;46.49
9281;BME280;4679;47.966;7.958;2023-07-16T14:41:40;97226.09;;;25.92;46.34
9281;BME280;4679;47.966;7.958;2023-07-16T14:43:41;97228.72;;;25.77;46.63
9281;BME280;4679;47.966;7.958;2023-07-16T14:45:43;97234.81;;;25.74;45.90
9281;BME280;4679;47.966;7.958;2023-07-16T14:47:44;97241.63;;;25.80;45.69
9281;BME280;4679;47.966;7.958;2023-07-16T14:49:46;97231.31;;;25.73;45.48
9281;BME280;4679;47.966;7.958;2023-07-16T14:51:48;97232.22;;;25.77;45.57
9281;BME280;4679;47.966;7.958;2023-07-16T14:53:50;97236.63;;;26.06;45.06
9281;BME280;4679;47.966;7.958;2023-07-16T14:55:54;97235.13;;;26.45;44.40
9281;BME280;4679;47.966;7.958;2023-07-16T14:57:55;97237.53;;;26.75;44.01
9281;BME280;4679;47.966;7.958;2023-07-16T14:59:57;97229.78;;;26.89;43.86
9281;BME280;4679;47.966;7.958;2023-07-16T15:01:59;97237.72;;;26.94;43.93
9281;BME280;4679;47.966;7.958;2023-07-16T15:04:01;97236.88;;;27.06;43.65
9281;BME280;4679;47.966;7.958;2023-07-16T15:06:04;97230.22;;;27.03;43.92
9281;BME280;4679;47.966;7.958;2023-07-16T15:08:05;97235.59;;;27.15;43.51
9281;BME280;4679;47.966;7.958;2023-07-16T15:10:08;97233.13;;;27.10;44.16
9281;BME280;4679;47.966;7.958;2023-07-16T15:12:11;97229.97;;;26.68;43.86
9281;BME280;4679;47.966;7.958;2023-07-16T15:14:12;97227.66;;;26.18;44.82
9281;BME280;4679;47.966;7.958;2023-07-16T15:16:14;97227.34;;;26.07;44.47
9281;BME280;4679;47.966;7.958;2023-07-16T15:18:16;97236.50;;;26.39;44.47
9281;BME280;4679;47.966;7.958;2023-07-16T15:20:18;97234.63;;;26.68;44.08
9281;BME280;4679;47.966;7.958;2023-07-16T15:22:20;97234.53;;;26.92;43.45
9281;BME280;4679;47.966;7.958;2023-07-16T15:24:22;97237.88;;;27.13;43.23
9281;BME280;4679;47.966;7.958;2023-07-16T15:26:23;97243.91;;;27.07;43.25
9281;BME280;4679;47.966;7.958;2023-07-16T15:28:26;97239.84;;;26.73;43.42
9281;BME280;4679;47.966;7.958;2023-07-16T15:30:31;97240.19;;;26.59;44.17
9281;BME280;4679;47.966;7.958;2023-07-16T15:32:33;97247.03;;;26.53;43.68
9281;BME280;4679;47.966;7.958;2023-07-16T15:34:35;97241.69;;;26.56;44.14
9281;BME280;4679;47.966;7.958;2023-07-16T15:36:36;97250.16;;;26.67;43.93
9281;BME280;4679;47.966;7.958;2023-07-16T15:38:39;97234.31;;;26.57;43.93
9281;BME280;4679;47.966;7.958;2023-07-16T15:40:41;97234.63;;;26.68;43.29
9281;BME280;4679;47.966;7.958;2023-07-16T15:42:43;97236.09;;;26.65;43.86
9281;BME280;4679;47.966;7.958;2023-07-16T15:44:46;97236.31;;;26.72;43.96
9281;BME280;4679;47.966;7.958;2023-07-16T15:46:47;97243.09;;;26.78;43.34
9281;BME280;4679;47.966;7.958;2023-07-16T15:48:49;97242.56;;;26.73;43.67
9281;BME280;4679;47.966;7.958;2023-07-16T15:50:56;97230.09;;;26.59;43.62
9281;BME280;4679;47.966;7.958;2023-07-16T15:52:58;97230.78;;;26.69;44.07
9281;BME280;4679;47.966;7.958;2023-07-16T15:55:01;97231.16;;;26.55;44.07
9281;BME280;4679;47.966;7.958;2023-07-16T15:57:02;97229.94;;;26.40;43.81
9281;BME280;4679;47.966;7.958;2023-07-16T15:59:03;97230.97;;;26.36;44.47
9281;BME280;4679;47.966;7.958;2023-07-16T16:01:06;97223.00;;;26.18;44.10
9281;BME280;4679;47.966;7.958;2023-07-16T16:03:08;97225.97;;;26.13;44.62
9281;BME280;4679;47.966;7.958;2023-07-16T16:05:10;97224.28;;;26.09;44.04
9281;BME280;4679;47.966;7.958;2023-07-16T16:07:12;97227.09;;;26.00;44.36
9281;BME280;4679;47.966;7.958;2023-07-16T16:09:13;97226.75;;;26.14;44.05
9281;BME280;4679;47.966;7.958;2023-07-16T16:11:15;97226.75;;;26.26;44.37
9281;BME280;4679;47.966;7.958;2023-07-16T16:13:17;97224.84;;;26.26;44.30
9281;BME280;4679;47.966;7.958;2023-07-16T16:15:19;97217.47;;;26.03;44.25
9281;BME280;4679;47.966;7.958;2023-07-16T16:17:22;97220.88;;;25.87;44.72
9281;BME280;4679;47.966;7.958;2023-07-16T16:19:24;97226.22;;;25.96;44.19
9281;BME280;4679;47.966;7.958;2023-07-16T16:21:26;97221.31;;;26.02;44.01
9281;BME280;4679;47.966;7.958;2023-07-16T16:23:28;97217.81;;;26.01;44.30
9281;BME280;4679;47.966;7.958;2023-07-16T16:25:31;97213.19;;;25.89;44.44
9281;BME280;4679;47.966;7.958;2023-07-16T16:27:32;97212.94;;;25.82;44.52
9281;BME280;4679;47.966;7.958;2023-07-16T16:29:33;97218.97;;;25.88;44.20
9281;BME280;4679;47.966;7.958;2023-07-16T16:31:35;97219.41;;;25.78;44.41
9281;BME280;4679;47.966;7.958;2023-07-16T16:33:38;97219.41;;;25.66;44.31
9281;BME280;4679;47.966;7.958;2023-07-16T16:35:41;97224.22;;;25.48;45.07
9281;BME280;4679;47.966;7.958;2023-07-16T16:37:43;97216.72;;;25.33;44.79
9281;BME280;4679;47.966;7.958;2023-07-16T16:39:45;97220.00;;;25.26;45.30
9281;BME280;4679;47.966;7.958;2023-07-16T16:41:48;97222.50;;;25.31;45.23
9281;BME280;4679;47.966;7.958;2023-07-16T16:43:50;97230.41;;;25.24;45.28
9281;BME280;4679;47.966;7.958;2023-07-16T16:45:53;97217.72;;;25.16;45.11
9281;BME280;4679;47.966;7.958;2023-07-16T16:47:55;97218.03;;;25.14;45.48
9281;BME280;4679;47.966;7.958;2023-07-16T16:49:58;97204.78;;;25.13;45.33
9281;BME280;4679;47.966;7.958;2023-07-16T16:52:00;97209.91;;;25.14;45.20
9281;BME280;4679;47.966;7.958;2023-07-16T16:54:01;97221.22;;;25.16;45.56
9281;BME280;4679;47.966;7.958;2023-07-16T16:56:04;97219.38;;;25.08;45.49
9281;BME280;4679;47.966;7.958;2023-07-16T16:58:06;97220.50;;;25.07;45.54
9281;BME280;4679;47.966;7.958;2023-07-16T17:00:09;97219.59;;;25.03;45.47
9281;BME280;4679;47.966;7.958;2023-07-16T17:02:13;97212.44;;;24.99;45.43
9281;BME280;4679;47.966;7.958;2023-07-16T17:04:14;97217.00;;;25.07;45.27
9281;BME280;4679;47.966;7.958;2023-07-16T17:06:17;97207.16;;;25.02;45.28
9281;BME280;4679;47.966;7.958;2023-07-16T17:08:19;97213.59;;;25.10;45.10
9281;BME280;4679;47.966;7.958;2023-07-16T17:10:21;97210.09;;;25.09;45.32
9281;BME280;4679;47.966;7.958;2023-07-16T17:12:23;97210.09;;;25.09;45.43
9281;BME280;4679;47.966;7.958;2023-07-16T17:14:24;97212.91;;;25.01;45.25
9281;BME280;4679;47.966;7.958;2023-07-16T17:16:26;97214.06;;;24.91;45.37
9281;BME280;4679;47.966;7.958;2023-07-16T17:18:28;97216.09;;;24.82;45.65
9281;BME280;4679;47.966;7.958;2023-07-16T17:20:30;97220.91;;;24.76;45.49
9281;BME280;4679;47.966;7.958;2023-07-16T17:22:33;97221.06;;;24.80;45.14
9281;BME280;4679;47.966;7.958;2023-07-16T17:24:33;97222.50;;;24.77;45.31
9281;BME280;4679;47.966;7.958;2023-07-16T17:26:35;97217.75;;;24.74;45.53
9281;BME280;4679;47.966;7.958;2023-07-16T17:28:37;97216.69;;;24.67;45.45
9281;BME280;4679;47.966;7.958;2023-07-16T17:30:38;97216.22;;;24.65;45.70
9281;BME280;4679;47.966;7.958;2023-07-16T17:32:40;97223.72;;;24.68;45.46
9281;BME280;4679;47.966;7.958;2023-07-16T17:34:42;97232.06;;;24.63;45.63
9281;BME280;4679;47.966;7.958;2023-07-16T17:36:43;97224.69;;;24.63;45.78
9281;BME280;4679;47.966;7.958;2023-07-16T17:38:46;97226.94;;;24.61;45.75
9281;BME280;4679;47.966;7.958;2023-07-16T17:40:48;97225.50;;;24.64;45.87
9281;BME280;4679;47.966;7.958;2023-07-16T17:42:50;97220.41;;;24.62;45.81
9281;BME280;4679;47.966;7.958;2023-07-16T17:44:51;97221.28;;;24.54;46.12